Time;durP1;ratioP1;P1;durP2;ratioP2;P2;SDS_P1;SDS_P2;PMS_P1;PMS_P2;Temp;Humidity;BMP_temperature;BMP_pressure;BME280_temperature;BME280_humidity;BME280_pressure;Samples;Min_cycle;Max_cycle;Signal;HPM_P1;HPM_P2
2023/11/26 00:00:44;;;;;;;1.92;1.30;;;4.40;99.90;;;;;;5048965;28;20041;-91
2023/11/26 00:03:10;;;;;;;2.70;1.33;;;4.40;99.90;;;;;;5048197;28;20029;-92
2023/11/26 00:05:36;;;;;;;2.38;1.48;;;4.40;99.90;;;;;;5048896;28;20048;-92
2023/11/26 00:08:04;;;;;;;2.70;1.63;;;4.40;99.90;;;;;;5033214;28;20056;-91
2023/11/26 00:10:32;;;;;;;1.58;1.20;;;4.20;99.90;;;;;;5029923;28;20061;-92
2023/11/26 00:12:58;;;;;;;3.17;1.90;;;4.20;99.90;;;;;;5044045;28;20030;-92
2023/11/26 00:15:32;;;;;;;3.30;2.13;;;4.20;99.90;;;;;;5029003;28;20026;-93
2023/11/26 00:17:58;;;;;;;3.58;1.45;;;4.20;99.90;;;;;;5011668;28;20102;-93
2023/11/26 00:20:27;;;;;;;3.35;2.70;;;4.20;99.90;;;;;;5044082;28;20026;-93
2023/11/26 00:22:52;;;;;;;3.38;2.42;;;4.10;99.90;;;;;;5010986;28;20029;-93
2023/11/26 00:25:18;;;;;;;2.72;2.03;;;4.10;99.90;;;;;;5028431;28;20095;-95
2023/11/26 00:27:44;;;;;;;2.42;1.98;;;4.10;99.90;;;;;;5028453;28;20022;-91
2023/11/26 00:30:14;;;;;;;3.38;2.08;;;4.10;99.90;;;;;;5011443;28;20551;-92
2023/11/26 00:32:39;;;;;;;3.67;2.55;;;4.00;99.90;;;;;;5010811;28;20041;-92
2023/11/26 00:35:06;;;;;;;3.88;1.42;;;4.00;99.90;;;;;;5043508;28;20021;-92
2023/11/26 00:37:32;;;;;;;3.80;2.40;;;4.00;99.90;;;;;;5027669;28;20065;-92
2023/11/26 00:40:01;;;;;;;3.03;2.75;;;3.90;99.90;;;;;;5027446;28;20022;-93
2023/11/26 00:42:27;;;;;;;2.33;1.40;;;3.80;99.90;;;;;;5027263;28;20061;-93
2023/11/26 00:44:53;;;;;;;1.88;1.50;;;3.70;99.90;;;;;;5027935;28;20029;-92
2023/11/26 00:47:20;;;;;;;6.35;2.25;;;3.70;99.90;;;;;;5026974;28;20029;-92
2023/11/26 00:49:46;;;;;;;2.53;1.88;;;3.60;99.90;;;;;;5045276;28;20069;-93
2023/11/26 00:52:12;;;;;;;2.25;1.52;;;3.60;99.90;;;;;;5029715;28;20021;-93
2023/11/26 00:54:38;;;;;;;1.58;1.48;;;3.50;99.90;;;;;;5047877;28;20049;-92
2023/11/26 00:57:07;;;;;;;2.60;1.90;;;3.50;99.90;;;;;;5031783;28;20037;-92
2023/11/26 00:59:33;;;;;;;2.67;1.88;;;3.40;99.90;;;;;;5027920;28;20034;-93
2023/11/26 01:02:00;;;;;;;2.55;1.90;;;3.40;99.90;;;;;;5011704;28;20044;-93
2023/11/26 01:04:26;;;;;;;2.45;2.28;;;3.40;99.90;;;;;;5049070;28;20013;-90
2023/11/26 01:06:55;;;;;;;2.95;2.45;;;3.30;99.90;;;;;;5052035;28;20021;-92
2023/11/26 01:09:20;;;;;;;2.90;2.05;;;3.30;99.90;;;;;;5050780;28;20017;-93
2023/11/26 01:11:46;;;;;;;2.78;2.58;;;3.30;99.90;;;;;;5049521;28;20113;-93
2023/11/26 01:14:13;;;;;;;5.57;1.88;;;3.20;99.90;;;;;;5048897;28;20025;-90
2023/11/26 01:16:39;;;;;;;4.10;2.25;;;3.20;99.90;;;;;;5050114;28;20041;-92
2023/11/26 01:19:05;;;;;;;2.33;1.70;;;3.20;99.90;;;;;;5036351;28;20048;-94
2023/11/26 01:21:31;;;;;;;3.08;2.88;;;3.20;99.90;;;;;;5012221;28;20022;-91
2023/11/26 01:23:56;;;;;;;2.25;2.05;;;3.20;99.90;;;;;;5028112;28;20065;-91
2023/11/26 01:26:22;;;;;;;4.60;2.17;;;3.10;99.90;;;;;;5028420;28;20026;-92
2023/11/26 01:28:54;;;;;;;3.03;2.20;;;3.00;99.90;;;;;;5028370;28;20072;-93
2023/11/26 01:31:19;;;;;;;3.95;2.25;;;3.00;99.90;;;;;;5035599;28;20029;-92
2023/11/26 01:33:48;;;;;;;3.42;2.05;;;3.00;99.90;;;;;;5046480;28;20048;-91
2023/11/26 01:36:14;;;;;;;2.72;2.05;;;3.00;99.90;;;;;;5047623;28;20028;-93
2023/11/26 01:38:39;;;;;;;3.20;2.90;;;2.90;99.90;;;;;;5047389;28;20022;-92
2023/11/26 01:41:05;;;;;;;3.45;2.20;;;2.90;99.90;;;;;;5048496;28;20053;-92
2023/11/26 01:43:31;;;;;;;3.40;1.83;;;2.90;99.90;;;;;;5029384;28;20026;-93
2023/11/26 01:46:09;;;;;;;5.43;2.63;;;2.90;99.90;;;;;;5018464;28;20037;-91
2023/11/26 01:48:36;;;;;;;3.03;2.33;;;2.90;99.90;;;;;;5033648;28;20025;-91
2023/11/26 01:51:05;;;;;;;3.17;2.05;;;2.90;99.90;;;;;;5032841;28;20056;-92
2023/11/26 01:53:31;;;;;;;2.17;1.95;;;2.90;99.90;;;;;;5031027;28;20073;-92
2023/11/26 01:55:58;;;;;;;3.58;2.70;;;2.90;99.90;;;;;;5015438;28;20026;-91
2023/11/26 01:58:32;;;;;;;2.40;1.77;;;2.90;99.90;;;;;;5031147;28;20060;-92
2023/11/26 02:00:58;;;;;;;;;;;3.00;99.90;;;;;;5008543;28;20030;-93
2023/11/26 02:03:33;;;;;;;2.45;1.73;;;3.00;99.90;;;;;;5025209;28;19906;-91
2023/11/26 02:05:58;;;;;;;2.33;1.83;;;3.00;99.90;;;;;;5022370;28;20036;-92
2023/11/26 02:08:27;;;;;;;6.47;2.95;;;3.00;99.90;;;;;;5042485;28;20033;-92
2023/11/26 02:10:53;;;;;;;7.68;2.47;;;3.00;99.90;;;;;;5036136;28;20032;-93
2023/11/26 02:13:19;;;;;;;2.72;1.73;;;3.00;99.90;;;;;;5028535;28;20026;-91
2023/11/26 02:15:45;;;;;;;3.00;2.50;;;3.10;99.90;;;;;;5026774;28;20147;-92
2023/11/26 02:18:15;;;;;;;3.17;2.15;;;3.10;99.90;;;;;;5027221;28;20026;-92
2023/11/26 02:20:40;;;;;;;2.20;1.98;;;3.10;99.90;;;;;;5046168;28;20076;-92
2023/11/26 02:23:07;;;;;;;2.75;2.30;;;3.10;99.90;;;;;;5028824;28;20026;-91
2023/11/26 02:25:33;;;;;;;4.40;2.63;;;3.10;99.90;;;;;;5008422;28;20029;-93
2023/11/26 02:28:01;;;;;;;4.68;2.25;;;3.10;99.90;;;;;;5025961;28;20056;-93
2023/11/26 02:30:27;;;;;;;2.15;1.95;;;3.10;99.90;;;;;;5040984;28;20025;-90
2023/11/26 02:32:55;;;;;;;3.65;2.60;;;3.10;99.90;;;;;;5026846;28;20030;-94
2023/11/26 02:35:22;;;;;;;3.47;3.00;;;3.10;99.90;;;;;;5044376;28;20041;-90
2023/11/26 02:37:48;;;;;;;3.35;2.30;;;3.00;99.90;;;;;;5044658;28;20029;-93
2023/11/26 02:40:16;;;;;;;3.42;2.65;;;3.00;99.90;;;;;;5044899;28;20021;-92
2023/11/26 02:42:44;;;;;;;2.25;1.83;;;3.00;99.90;;;;;;5027441;28;20021;-92
2023/11/26 02:45:10;;;;;;;2.33;2.03;;;3.00;99.90;;;;;;5027327;28;20033;-90
2023/11/26 02:47:36;;;;;;;3.70;2.22;;;3.10;99.90;;;;;;5045279;28;20029;-92
2023/11/26 02:50:04;;;;;;;2.50;2.35;;;3.00;99.90;;;;;;5042955;28;20484;-92
2023/11/26 02:52:30;;;;;;;2.50;1.98;;;3.00;99.90;;;;;;5027350;28;20029;-92
2023/11/26 02:54:58;;;;;;;3.60;1.55;;;3.00;99.90;;;;;;5027657;28;20093;-93
2023/11/26 02:57:24;;;;;;;3.88;2.40;;;3.00;99.90;;;;;;5025915;28;20538;-92
2023/11/26 02:59:50;;;;;;;2.90;2.00;;;3.00;99.90;;;;;;5026616;28;20085;-91
2023/11/26 03:02:18;;;;;;;3.30;2.00;;;3.00;99.90;;;;;;5028201;28;20495;-92
2023/11/26 03:04:53;;;;;;;2.75;1.63;;;3.10;99.90;;;;;;5056987;28;20053;-93
2023/11/26 03:07:21;;;;;;;2.35;1.40;;;3.10;99.90;;;;;;5025011;28;20398;-93
2023/11/26 03:15:18;;;;;;;1.98;1.75;;;3.10;99.90;;;;;;5023231;28;20037;-93
2023/11/26 03:18:05;;;;;;;1.70;1.60;;;3.10;99.90;;;;;;5018618;28;20024;-94
2023/11/26 03:20:31;;;;;;;1.88;1.65;;;3.00;99.90;;;;;;5026725;28;20068;-93
2023/11/26 03:22:58;;;;;;;1.83;1.30;;;3.00;99.90;;;;;;5042802;28;20060;-92
2023/11/26 03:25:29;;;;;;;1.90;1.80;;;3.00;99.90;;;;;;5009568;28;20037;-93
2023/11/26 03:27:58;;;;;;;1.73;1.63;;;3.00;99.90;;;;;;5024850;28;20052;-93
2023/11/26 03:30:27;;;;;;;2.95;2.25;;;2.90;99.90;;;;;;5023899;28;20038;-93
2023/11/26 03:32:59;;;;;;;2.47;1.55;;;2.90;99.90;;;;;;5020104;28;20036;-93
2023/11/26 03:35:26;;;;;;;4.47;1.88;;;2.80;99.90;;;;;;5027039;28;20029;-93
2023/11/26 03:37:54;;;;;;;1.58;1.48;;;2.80;99.90;;;;;;5043112;28;20026;-91
2023/11/26 03:40:23;;;;;;;2.67;2.25;;;2.80;99.90;;;;;;5042793;28;20033;-92
2023/11/26 03:42:50;;;;;;;2.58;2.35;;;2.80;99.90;;;;;;5043526;28;20033;-92
2023/11/26 03:45:25;;;;;;;2.30;1.30;;;2.70;99.90;;;;;;5044355;28;20029;-92
2023/11/26 03:47:50;;;;;;;1.58;1.20;;;2.60;99.90;;;;;;5025899;28;20036;-93
2023/11/26 03:50:19;;;;;;;1.75;1.50;;;2.60;99.90;;;;;;5043794;28;20185;-91
2023/11/26 03:52:55;;;;;;;2.50;1.73;;;2.60;99.90;;;;;;5042270;28;20022;-93
2023/11/26 03:55:21;;;;;;;3.60;2.13;;;2.60;99.90;;;;;;5042798;28;20028;-92
2023/11/26 03:57:51;;;;;;;2.08;1.95;;;2.50;99.90;;;;;;5044572;28;20057;-92
2023/11/26 04:00:33;;;;;;;2.55;1.92;;;2.60;99.90;;;;;;5044559;28;20028;-94
2023/11/26 04:03:03;;;;;;;3.80;2.28;;;2.50;99.90;;;;;;5014391;28;20100;-92
2023/11/26 04:05:36;;;;;;;2.55;1.77;;;2.60;99.90;;;;;;5026360;28;20026;-93
2023/11/26 04:08:02;;;;;;;3.55;2.17;;;2.60;99.90;;;;;;5043779;28;20036;-93
2023/11/26 04:10:28;;;;;;;2.17;1.98;;;2.60;99.90;;;;;;5044470;28;20021;-91
2023/11/26 04:12:54;;;;;;;2.50;2.30;;;2.60;99.90;;;;;;5026742;28;20048;-91
2023/11/26 04:15:44;;;;;;;5.03;2.70;;;2.60;99.90;;;;;;5043372;28;20037;-93
2023/11/26 04:18:30;;;;;;;2.38;2.17;;;2.60;99.90;;;;;;5044247;28;20072;-92
2023/11/26 04:20:59;;;;;;;3.20;2.35;;;2.70;99.90;;;;;;5017358;28;20026;-92
2023/11/26 04:23:43;;;;;;;3.72;2.55;;;2.60;99.90;;;;;;5025226;28;20037;-91
2023/11/26 04:26:21;;;;;;;3.88;2.58;;;2.60;99.90;;;;;;5013129;28;20472;-91
2023/11/26 04:28:47;;;;;;;3.67;2.55;;;2.70;99.90;;;;;;5014373;28;20030;-92
2023/11/26 04:31:22;;;;;;;3.67;2.75;;;2.60;99.90;;;;;;5026369;28;20032;-92
2023/11/26 04:33:48;;;;;;;3.78;2.88;;;2.70;99.90;;;;;;5059383;28;20044;-92
2023/11/26 04:36:16;;;;;;;4.70;3.17;;;2.60;99.90;;;;;;5058280;28;20021;-92
2023/11/26 04:38:59;;;;;;;;;;;;;;;;;;;;;
2023/11/26 04:41:26;;;;;;;3.20;2.30;;;2.60;99.90;;;;;;5048671;28;19996;-93
2023/11/26 04:43:58;;;;;;;3.35;3.03;;;2.60;99.90;;;;;;5054138;28;20017;-93
2023/11/26 04:46:25;;;;;;;2.75;2.47;;;2.60;99.90;;;;;;5051994;28;20045;-93
2023/11/26 04:48:54;;;;;;;4.57;2.80;;;2.60;99.90;;;;;;5032492;28;20031;-92
2023/11/26 04:51:23;;;;;;;3.75;2.95;;;2.60;99.90;;;;;;5030553;28;20026;-92
2023/11/26 04:53:55;;;;;;;4.07;3.22;;;2.60;99.90;;;;;;5017038;28;20066;-93
2023/11/26 04:56:28;;;;;;;4.25;2.88;;;2.60;99.90;;;;;;4994758;28;20026;-92
2023/11/26 04:58:57;;;;;;;6.55;3.85;;;2.60;99.90;;;;;;5026473;28;20025;-92
2023/11/26 05:01:23;;;;;;;4.10;2.28;;;2.50;99.90;;;;;;5027521;28;20022;-93
2023/11/26 05:03:51;;;;;;;4.45;3.13;;;2.50;99.90;;;;;;5027433;28;20049;-92
2023/11/26 05:06:18;;;;;;;2.55;2.30;;;2.50;99.90;;;;;;5009589;28;20033;-92
2023/11/26 05:08:44;;;;;;;3.78;2.80;;;2.40;99.90;;;;;;5026452;28;20041;-92
2023/11/26 05:11:10;;;;;;;4.35;2.60;;;2.40;99.90;;;;;;5034475;28;20030;-92
2023/11/26 05:13:48;;;;;;;1.60;1.50;;;2.40;99.90;;;;;;5048056;28;20029;-92
2023/11/26 05:16:20;;;;;;;3.17;2.88;;;2.30;99.90;;;;;;5032984;28;20018;-91
2023/11/26 05:18:48;;;;;;;3.45;2.95;;;2.40;99.90;;;;;;5046174;28;20026;-92
2023/11/26 05:21:20;;;;;;;2.55;2.35;;;2.40;99.90;;;;;;5046319;28;20024;-93
2023/11/26 05:27:21;;;;;;;2.72;2.03;;;2.30;99.90;;;;;;5040749;28;20083;-92
2023/11/26 05:29:47;;;;;;;2.15;1.95;;;2.30;99.90;;;;;;5027458;28;20052;-92
2023/11/26 05:32:18;;;;;;;3.40;1.98;;;2.30;99.90;;;;;;5028696;28;20124;-93
2023/11/26 05:34:44;;;;;;;2.88;1.63;;;2.30;99.90;;;;;;5027686;28;20053;-92
2023/11/26 05:37:11;;;;;;;4.28;2.38;;;2.30;99.90;;;;;;5029456;28;20028;-93
2023/11/26 05:39:58;;;;;;;3.40;2.15;;;2.30;99.90;;;;;;5028382;28;20061;-92
2023/11/26 05:42:36;;;;;;;2.33;1.95;;;2.30;99.90;;;;;;5032377;28;20026;-93
2023/11/26 05:45:02;;;;;;;2.45;2.25;;;2.40;99.90;;;;;;5051458;28;20021;-93
2023/11/26 05:47:30;;;;;;;3.33;2.50;;;2.30;99.90;;;;;;5045839;28;20100;-93
2023/11/26 05:49:56;;;;;;;3.25;2.60;;;2.40;99.90;;;;;;5028156;28;20480;-94
2023/11/26 05:52:22;;;;;;;3.90;3.50;;;2.40;99.90;;;;;;5045021;28;20029;-93
2023/11/26 05:54:53;;;;;;;6.40;2.47;;;2.40;99.90;;;;;;5026989;28;20555;-93
2023/11/26 05:57:23;;;;;;;3.85;2.80;;;2.40;99.90;;;;;;5027190;28;20076;-92
2023/11/26 05:59:54;;;;;;;5.35;2.35;;;2.40;99.90;;;;;;5008831;28;20029;-93
2023/11/26 06:02:22;;;;;;;3.75;2.63;;;2.40;99.90;;;;;;5025860;28;20030;-91
2023/11/26 06:04:54;;;;;;;5.35;2.95;;;2.40;99.90;;;;;;5024562;28;20030;-93
2023/11/26 06:07:24;;;;;;;2.85;2.53;;;2.50;99.90;;;;;;5033951;28;20017;-92
2023/11/26 06:09:50;;;;;;;3.80;3.15;;;2.50;99.90;;;;;;5027848;28;20021;-93
2023/11/26 06:12:16;;;;;;;2.78;2.53;;;2.40;99.90;;;;;;5026392;28;20121;-92
2023/11/26 06:14:42;;;;;;;4.55;3.42;;;2.50;99.90;;;;;;5027499;28;20053;-91
2023/11/26 06:17:09;;;;;;;3.90;3.25;;;2.50;99.90;;;;;;5024655;28;20049;-94
2023/11/26 06:19:36;;;;;;;3.63;3.10;;;2.50;99.90;;;;;;5057346;28;20026;-93
2023/11/26 06:22:02;;;;;;;4.85;3.90;;;2.60;99.90;;;;;;5057498;28;20488;-92
2023/11/26 06:24:28;;;;;;;8.07;3.67;;;2.50;99.90;;;;;;5026196;28;20041;-92
2023/11/26 06:30:14;;;;;;;5.65;3.58;;;2.60;99.90;;;;;;5056044;28;20061;-93
2023/11/26 06:32:40;;;;;;;7.60;3.95;;;2.60;99.90;;;;;;5031075;28;20029;-92
2023/11/26 06:35:08;;;;;;;12.18;5.05;;;2.60;99.90;;;;;;5021565;28;20033;-94
2023/11/26 06:37:34;;;;;;;8.25;4.63;;;2.60;99.90;;;;;;5025798;28;20022;-92
2023/11/26 06:40:08;;;;;;;6.07;3.78;;;2.60;99.90;;;;;;5025759;28;20033;-93
2023/11/26 06:42:34;;;;;;;7.43;5.00;;;2.60;99.90;;;;;;5025103;28;20025;-91
2023/11/26 06:45:00;;;;;;;7.50;4.38;;;2.60;99.90;;;;;;5008647;28;20385;-92
2023/11/26 06:47:27;;;;;;;5.82;4.35;;;2.70;99.90;;;;;;5025411;28;20084;-92
2023/11/26 06:49:53;;;;;;;8.85;4.88;;;2.60;99.90;;;;;;5008959;28;20030;-93
2023/11/26 06:52:19;;;;;;;6.78;4.97;;;2.70;99.90;;;;;;5008097;28;20089;-93
2023/11/26 06:54:45;;;;;;;8.55;5.05;;;2.70;99.90;;;;;;5030127;28;20052;-92
2023/11/26 06:57:11;;;;;;;8.82;4.60;;;2.70;99.90;;;;;;5045648;28;20030;-91
2023/11/26 06:59:37;;;;;;;9.13;4.63;;;2.80;99.90;;;;;;5026258;28;20067;-92
2023/11/26 07:02:14;;;;;;;10.23;5.35;;;2.80;99.90;;;;;;5007154;28;20021;-94
2023/11/26 07:04:40;;;;;;;10.43;5.55;;;2.80;99.90;;;;;;5025093;28;20033;-92
2023/11/26 07:07:10;;;;;;;9.52;4.85;;;2.80;99.90;;;;;;5009102;28;20120;-92
2023/11/26 07:09:36;;;;;;;8.15;5.20;;;2.80;99.90;;;;;;5007946;28;20018;-91
2023/11/26 07:12:14;;;;;;;8.80;5.28;;;2.80;99.90;;;;;;5008015;28;20021;-92
2023/11/26 07:14:47;;;;;;;8.55;5.03;;;2.90;99.90;;;;;;5026350;28;20090;-92
2023/11/26 07:17:13;;;;;;;9.60;5.40;;;2.80;99.90;;;;;;5007559;28;20064;-92
2023/11/26 07:19:44;;;;;;;7.97;5.32;;;2.90;99.90;;;;;;5007378;28;20030;-93
2023/11/26 07:22:11;;;;;;;8.50;7.25;;;2.90;99.90;;;;;;5006471;28;20022;-92
2023/11/26 07:24:36;;;;;;;10.40;6.95;;;3.00;99.90;;;;;;5025285;28;20364;-93
2023/11/26 07:27:05;;;;;;;13.57;6.82;;;3.00;99.90;;;;;;5043438;28;20093;-92
2023/11/26 07:29:34;;;;;;;10.30;6.13;;;3.00;99.90;;;;;;5024665;28;20025;-92
2023/11/26 07:33:20;;;;;;;14.18;6.72;;;3.10;99.90;;;;;;5041747;28;20056;-92
2023/11/26 07:35:39;;;;;;;11.45;6.45;;;3.10;99.90;;;;;;5035844;28;20048;-91
2023/11/26 07:38:08;;;;;;;14.32;7.57;;;3.20;99.90;;;;;;5052269;28;20072;-95
2023/11/26 07:40:37;;;;;;;12.13;7.25;;;3.20;99.90;;;;;;5021529;28;20100;-96
2023/11/26 07:43:07;;;;;;;13.73;6.95;;;3.20;99.90;;;;;;5034500;28;20403;-95
2023/11/26 07:45:37;;;;;;;14.32;6.68;;;3.20;99.90;;;;;;5060700;22;20053;-92
2023/11/26 07:48:04;;;;;;;12.50;6.95;;;3.20;99.90;;;;;;5043807;28;20017;-91
2023/11/26 07:50:30;;;;;;;11.75;6.70;;;3.20;99.90;;;;;;5037180;28;20049;-91
2023/11/26 07:52:56;;;;;;;17.48;7.05;;;3.30;99.90;;;;;;5030536;28;20029;-91
2023/11/26 07:55:25;;;;;;;14.80;7.75;;;3.30;99.90;;;;;;5034109;28;20021;-93
2023/11/26 07:57:53;;;;;;;15.80;6.57;;;3.30;99.90;;;;;;5017969;28;20027;-91
2023/11/26 08:00:25;;;;;;;;;;;3.30;99.90;;;;;;5026652;28;20048;-93
2023/11/26 08:02:51;;;;;;;10.98;7.22;;;3.30;99.90;;;;;;5031835;28;19994;-91
2023/11/26 08:05:18;;;;;;;14.00;8.05;;;3.30;99.90;;;;;;5009015;28;20540;-89
2023/11/26 08:07:54;;;;;;;13.55;8.55;;;3.40;99.90;;;;;;5025912;28;20048;-92
2023/11/26 08:10:20;;;;;;;12.90;7.20;;;3.40;99.90;;;;;;5022321;28;20140;-91
2023/11/26 08:12:50;;;;;;;16.50;7.45;;;3.40;99.90;;;;;;5031390;28;20558;-90
2023/11/26 08:15:20;;;;;;;16.48;7.80;;;3.50;99.90;;;;;;5036586;28;20037;-92
2023/11/26 08:17:49;;;;;;;13.93;7.25;;;3.50;99.90;;;;;;5024433;28;20381;-90
2023/11/26 08:20:18;;;;;;;15.02;8.57;;;3.60;99.90;;;;;;5041669;28;20021;-91
2023/11/26 08:22:46;;;;;;;12.27;7.18;;;3.60;99.90;;;;;;5013958;28;20026;-93
2023/11/26 08:25:22;;;;;;;15.40;7.40;;;3.70;99.90;;;;;;5033000;28;20030;-90
2023/11/26 08:27:53;;;;;;;15.48;6.43;;;3.70;99.90;;;;;;5014667;28;20044;-90
2023/11/26 08:30:31;;;;;;;16.08;9.02;;;3.70;99.90;;;;;;5041598;28;20021;-90
2023/11/26 08:33:07;;;;;;;14.60;8.07;;;3.80;99.90;;;;;;5023683;28;20030;-90
2023/11/26 08:35:33;;;;;;;20.40;8.60;;;3.80;99.90;;;;;;5044762;28;20064;-92
2023/11/26 08:38:01;;;;;;;16.98;8.15;;;3.80;99.90;;;;;;5026999;28;20076;-93
2023/11/26 08:40:38;;;;;;;17.25;7.93;;;3.90;99.90;;;;;;5048392;28;20022;-94
2023/11/26 08:43:14;;;;;;;15.05;8.07;;;4.00;99.90;;;;;;5023650;28;20072;-92
2023/11/26 08:45:40;;;;;;;15.30;9.30;;;4.00;99.90;;;;;;5040918;28;20112;-92
2023/11/26 08:48:07;;;;;;;16.85;8.15;;;4.10;99.90;;;;;;5032169;28;20048;-92
2023/11/26 08:50:41;;;;;;;14.85;8.88;;;4.10;99.90;;;;;;5038657;28;20026;-93
2023/11/26 08:53:12;;;;;;;14.63;8.80;;;4.10;99.90;;;;;;5033877;28;20052;-93
2023/11/26 08:55:44;;;;;;;16.70;8.82;;;4.20;99.90;;;;;;5045831;28;20014;-91
2023/11/26 08:58:10;;;;;;;15.38;8.27;;;4.20;99.90;;;;;;5028164;28;20009;-92
2023/11/26 09:00:36;;;;;;;19.48;9.02;;;4.30;99.90;;;;;;5018329;28;20021;-92
2023/11/26 09:03:01;;;;;;;17.15;9.93;;;4.30;99.90;;;;;;5039810;28;20029;-92
2023/11/26 09:05:27;;;;;;;17.50;7.63;;;4.40;99.90;;;;;;5012398;28;20121;-88
2023/11/26 09:08:02;;;;;;;19.17;8.07;;;4.30;99.90;;;;;;5023507;28;20009;-92
2023/11/26 09:10:28;;;;;;;14.40;7.82;;;4.30;99.90;;;;;;5052044;28;20029;-92
2023/11/26 09:13:03;;;;;;;22.38;9.98;;;4.40;99.90;;;;;;5024083;28;20038;-92
2023/11/26 09:15:29;;;;;;;20.65;7.75;;;4.40;99.90;;;;;;5032665;28;20021;-92
2023/11/26 09:18:11;;;;;;;12.38;7.78;;;4.50;99.90;;;;;;5022768;28;20076;-96
2023/11/26 09:20:37;;;;;;;14.88;7.43;;;4.70;99.90;;;;;;5040826;22;20058;-93
2023/11/26 09:23:03;;;;;;;17.20;7.70;;;4.80;99.90;;;;;;5023425;28;20398;-94
2023/11/26 09:25:32;;;;;;;13.13;8.52;;;4.90;99.90;;;;;;5028717;28;20010;-95
2023/11/26 09:28:01;;;;;;;17.55;8.35;;;5.10;99.90;;;;;;5003010;28;20026;-95
2023/11/26 09:30:27;;;;;;;12.90;6.88;;;5.20;99.90;;;;;;5021427;28;20018;-95
2023/11/26 09:32:52;;;;;;;15.80;7.93;;;5.40;99.90;;;;;;5022895;28;20057;-95
2023/11/26 09:35:21;;;;;;;14.25;8.48;;;5.40;99.90;;;;;;5026182;28;20029;-94
2023/11/26 09:37:50;;;;;;;10.85;6.75;;;5.30;99.90;;;;;;5002562;28;20026;-95
2023/11/26 09:40:17;;;;;;;14.95;7.95;;;5.30;99.90;;;;;;5011333;28;20056;-92
2023/11/26 09:42:56;;;;;;;12.05;6.60;;;5.30;99.90;;;;;;5019900;28;20022;-94
2023/11/26 09:45:21;;;;;;;11.38;6.95;;;5.40;99.90;;;;;;5018084;28;20093;-93
2023/11/26 09:47:47;;;;;;;11.55;7.28;;;5.40;99.90;;;;;;5014830;28;20018;-94
2023/11/26 09:50:19;;;;;;;16.20;6.13;;;5.50;99.90;;;;;;5021104;28;20026;-94
2023/11/26 09:52:51;;;;;;;9.50;6.53;;;5.40;99.90;;;;;;5024518;28;20085;-95
2023/11/26 09:55:20;;;;;;;15.70;8.13;;;5.40;99.90;;;;;;5022516;28;20026;-94
2023/11/26 09:57:46;;;;;;;12.10;6.82;;;5.50;99.90;;;;;;5020069;28;20031;-93
2023/11/26 10:00:12;;;;;;;12.10;5.88;;;5.70;99.90;;;;;;5011372;28;20081;-94
2023/11/26 10:03:00;;;;;;;10.10;6.07;;;5.70;99.90;;;;;;5015665;28;20030;-94
2023/11/26 10:05:37;;;;;;;11.75;6.78;;;5.70;99.90;;;;;;5005338;28;20026;-94
2023/11/26 10:08:02;;;;;;;8.73;6.78;;;5.80;99.90;;;;;;5012171;28;20026;-95
2023/11/26 10:10:28;;;;;;;14.18;6.50;;;5.70;99.90;;;;;;5019083;28;20036;-94
2023/11/26 10:12:55;;;;;;;9.50;5.82;;;5.80;99.90;;;;;;5003099;28;20103;-95
2023/11/26 10:15:22;;;;;;;13.18;6.35;;;5.80;99.90;;;;;;5000710;28;20022;-94
2023/11/26 10:18:04;;;;;;;10.65;6.05;;;5.80;99.90;;;;;;5016014;28;20033;-95
2023/11/26 10:20:42;;;;;;;8.98;6.50;;;5.70;99.90;;;;;;4992023;28;20031;-94
2023/11/26 10:23:10;;;;;;;9.60;5.53;;;5.80;99.90;;;;;;5004354;28;20026;-94
2023/11/26 10:25:45;;;;;;;12.35;6.03;;;5.90;99.90;;;;;;5017663;28;20026;-95
2023/11/26 10:28:15;;;;;;;11.05;5.57;;;5.90;99.90;;;;;;5008476;28;20038;-94
2023/11/26 10:30:41;;;;;;;9.77;5.53;;;5.90;99.90;;;;;;5021446;28;20057;-92
2023/11/26 10:33:11;;;;;;;8.38;6.13;;;6.00;99.90;;;;;;5021644;28;20025;-93
2023/11/26 10:35:55;;;;;;;12.93;5.75;;;6.00;99.90;;;;;;5021265;28;20021;-95
2023/11/26 10:38:34;;;;;;;10.88;5.88;;;6.10;99.90;;;;;;5001125;28;20014;-95
2023/11/26 10:41:10;;;;;;;12.23;5.97;;;6.10;99.90;;;;;;5025665;28;20035;-94
2023/11/26 10:43:37;;;;;;;8.40;4.53;;;6.10;97.00;;;;;;5024938;28;20507;-95
2023/11/26 10:46:05;;;;;;;9.52;5.00;;;6.00;97.60;;;;;;5007046;28;20030;-94
2023/11/26 10:48:36;;;;;;;8.52;5.75;;;6.00;98.30;;;;;;5030420;28;20010;-96
2023/11/26 10:51:08;;;;;;;12.90;7.88;;;6.00;98.40;;;;;;5016619;28;20080;-96
2023/11/26 10:54:12;;;;;;;11.07;5.80;;;6.10;99.90;;;;;;5034351;28;20025;-96
2023/11/26 10:56:39;;;;;;;10.93;6.63;;;5.80;98.10;;;;;;5035142;28;20013;-96
2023/11/26 10:59:14;;;;;;;13.90;11.85;;;5.80;99.90;;;;;;5026213;28;20046;-96
2023/11/26 11:01:41;;;;;;;12.80;6.55;;;5.80;99.90;;;;;;5007980;28;20040;-95
2023/11/26 11:04:14;;;;;;;11.05;5.32;;;5.80;99.90;;;;;;5014727;28;20041;-95
2023/11/26 11:06:42;;;;;;;11.60;6.03;;;5.80;99.90;;;;;;5000904;28;20141;-96
2023/11/26 11:09:13;;;;;;;12.63;7.60;;;5.80;99.90;;;;;;5033637;28;20014;-93
2023/11/26 11:11:55;;;;;;;8.88;5.78;;;5.90;99.90;;;;;;5016341;28;20025;-96
2023/11/26 11:14:25;;;;;;;13.02;6.97;;;5.90;99.90;;;;;;5039277;28;20032;-94
2023/11/26 11:16:51;;;;;;;11.50;6.72;;;5.80;99.90;;;;;;5028706;28;20033;-96
2023/11/26 11:19:55;;;;;;;11.13;5.50;;;5.80;99.90;;;;;;5008399;28;20058;-96
2023/11/26 11:22:41;;;;;;;11.07;6.20;;;5.90;99.90;;;;;;5012353;28;20056;-96
2023/11/26 11:25:20;;;;;;;14.02;7.82;;;6.00;99.90;;;;;;5012327;28;20018;-94
2023/11/26 11:27:58;;;;;;;12.60;5.38;;;5.90;99.90;;;;;;5022352;28;20026;-96
2023/11/26 11:30:39;;;;;;;11.57;5.97;;;5.90;99.90;;;;;;5014970;28;20044;-96
2023/11/26 11:33:10;;;;;;;10.18;6.80;;;5.90;99.90;;;;;;5030545;28;20034;-96
2023/11/26 11:35:45;;;;;;;13.35;5.72;;;5.90;99.90;;;;;;5029542;28;20025;-96
2023/11/26 11:38:21;;;;;;;13.23;7.05;;;5.90;99.90;;;;;;5032436;28;20030;-95
2023/11/26 11:41:07;;;;;;;10.93;7.30;;;5.90;99.90;;;;;;5010871;28;20007;-96
2023/11/26 11:43:35;;;;;;;13.38;6.60;;;6.00;99.90;;;;;;5014522;28;20045;-96
2023/11/26 11:46:30;;;;;;;10.10;6.45;;;5.90;99.90;;;;;;5036605;28;20026;-96
2023/11/26 11:49:00;;;;;;;9.98;6.53;;;5.90;99.90;;;;;;5010026;28;20033;-96
2023/11/26 11:51:41;;;;;;;10.10;5.78;;;5.90;99.90;;;;;;5033993;28;20034;-94
2023/11/26 11:54:09;;;;;;;;;;;5.80;99.90;;;;;;5036292;28;20022;-95
2023/11/26 11:56:47;;;;;;;11.10;6.13;;;5.90;99.90;;;;;;5030952;28;19937;-95
2023/11/26 11:59:18;;;;;;;11.38;5.80;;;5.90;99.90;;;;;;5015074;28;20037;-95
2023/11/26 12:01:47;;;;;;;12.50;7.22;;;5.90;99.90;;;;;;5034430;28;20018;-95
2023/11/26 12:04:14;;;;;;;9.70;5.20;;;5.90;99.90;;;;;;5011127;28;20010;-95
2023/11/26 12:06:59;;;;;;;10.68;5.95;;;5.90;99.90;;;;;;5018155;28;20007;-95
2023/11/26 12:09:35;;;;;;;9.32;6.35;;;5.80;99.90;;;;;;5021534;28;20051;-95
2023/11/26 12:12:01;;;;;;;12.80;7.13;;;5.80;99.90;;;;;;5034714;28;20112;-96
2023/11/26 12:14:29;;;;;;;12.18;6.10;;;5.90;99.90;;;;;;5031568;28;20029;-95
2023/11/26 12:16:55;;;;;;;9.48;5.80;;;5.90;99.90;;;;;;5026401;28;20040;-95
2023/11/26 12:19:21;;;;;;;8.00;5.43;;;5.90;99.90;;;;;;5026370;28;20030;-94
2023/11/26 12:21:49;;;;;;;10.63;6.43;;;6.00;99.90;;;;;;5021282;28;20030;-96
2023/11/26 12:24:22;;;;;;;15.38;6.82;;;6.00;99.90;;;;;;5019340;28;20025;-96
2023/11/26 12:26:48;;;;;;;9.48;5.35;;;6.10;99.90;;;;;;5014072;28;20095;-95
2023/11/26 12:29:32;;;;;;;12.73;6.32;;;6.10;98.50;;;;;;5012892;28;20013;-96
2023/11/26 12:32:07;;;;;;;9.13;5.30;;;6.00;96.80;;;;;;5008969;28;20041;-95
2023/11/26 12:34:40;;;;;;;10.15;4.95;;;5.90;97.00;;;;;;5028767;28;20151;-96
2023/11/26 12:37:10;;;;;;;16.27;5.05;;;6.00;99.30;;;;;;5026574;28;20086;-94
2023/11/26 12:39:38;;;;;;;12.68;5.22;;;6.10;99.20;;;;;;5029890;28;20046;-94
2023/11/26 12:42:04;;;;;;;9.30;4.60;;;6.00;97.80;;;;;;5030221;28;20018;-95
2023/11/26 12:44:33;;;;;;;9.32;5.32;;;5.90;97.70;;;;;;5033118;28;20009;-94
2023/11/26 12:47:10;;;;;;;12.00;5.07;;;5.90;97.70;;;;;;5020275;28;20044;-94
2023/11/26 12:49:37;;;;;;;14.30;7.57;;;5.90;97.90;;;;;;5034032;28;20044;-96
2023/11/26 12:52:04;;;;;;;7.15;4.47;;;5.80;99.20;;;;;;5020357;28;20006;-95
2023/11/26 12:54:30;;;;;;;10.52;4.80;;;5.80;98.30;;;;;;5033621;28;20283;-94
2023/11/26 12:56:59;;;;;;;8.68;4.70;;;5.80;98.30;;;;;;5038302;28;20032;-95
2023/11/26 12:59:25;;;;;;;10.05;5.40;;;5.70;98.90;;;;;;5037224;28;20026;-95
2023/11/26 13:01:51;;;;;;;9.23;5.10;;;5.80;99.60;;;;;;5036052;28;20030;-94
2023/11/26 13:04:32;;;;;;;9.55;5.22;;;5.70;99.90;;;;;;5022694;28;20034;-94
2023/11/26 13:06:57;;;;;;;;;;;5.60;98.60;;;;;;5024565;28;20022;-94
2023/11/26 13:09:26;;;;;;;8.93;4.78;;;5.60;98.50;;;;;;5023313;28;19941;-94
2023/11/26 13:11:59;;;;;;;7.38;5.55;;;5.50;99.00;;;;;;5017605;28;20029;-96
2023/11/26 13:14:28;;;;;;;8.15;5.60;;;5.60;99.50;;;;;;5006609;28;20050;-95
2023/11/26 13:16:54;;;;;;;8.15;5.15;;;5.50;98.80;;;;;;5024508;28;20018;-96
2023/11/26 13:19:23;;;;;;;6.63;5.20;;;5.60;98.60;;;;;;5007398;28;20033;-93
2023/11/26 13:21:51;;;;;;;8.70;5.22;;;5.70;99.00;;;;;;5017521;28;20026;-94